Time;durP1;ratioP1;P1;durP2;ratioP2;P2;SDS_P1;SDS_P2;PMS_P1;PMS_P2;Temp;Humidity;BMP_temperature;BMP_pressure;BME280_temperature;BME280_humidity;BME280_pressure;Samples;Min_cycle;Max_cycle;Signal;HPM_P1;HPM_P2
2021/08/20 00:02:14;;;;;;;2.60;2.50;;;;;;;24.93;45.90;98350.22;4996100;28;20685;-59
2021/08/20 00:04:40;;;;;;;2.70;2.50;;;;;;;24.95;45.78;98345.50;4994856;28;20234;-60
2021/08/20 00:07:07;;;;;;;2.57;2.43;;;;;;;24.95;45.79;98353.50;4996563;28;20650;-59
2021/08/20 00:09:33;;;;;;;2.20;2.10;;;;;;;24.95;45.73;98352.72;4995921;28;20187;-59
2021/08/20 00:12:01;;;;;;;2.60;2.40;;;;;;;24.88;45.96;98352.72;4995912;28;20314;-60
2021/08/20 00:14:27;;;;;;;2.80;2.60;;;;;;;24.95;45.83;98345.50;4995763;28;20203;-60
2021/08/20 00:16:54;;;;;;;2.40;2.30;;;;;;;24.94;45.83;98346.53;4996097;28;20191;-60
2021/08/20 00:19:20;;;;;;;2.67;2.50;;;;;;;24.98;45.71;98351.44;4995795;28;20188;-60
2021/08/20 00:21:47;;;;;;;2.60;2.43;;;;;;;24.97;45.72;98347.97;4995709;28;20720;-60
2021/08/20 00:24:15;;;;;;;2.50;2.30;;;;;;;24.99;45.78;98347.75;4995979;28;20297;-60
2021/08/20 00:26:42;;;;;;;2.53;2.43;;;;;;;24.94;45.59;98346.53;4994674;28;20196;-60
2021/08/20 00:29:09;;;;;;;2.30;2.20;;;;;;;24.95;45.79;98350.03;4978280;28;20760;-60
2021/08/20 00:31:36;;;;;;;2.40;2.20;;;;;;;24.94;45.80;98346.53;4995692;28;20219;-60
2021/08/20 00:34:03;;;;;;;2.50;2.30;;;;;;;24.94;45.85;98341.19;4993755;28;20217;-60
2021/08/20 00:36:29;;;;;;;2.30;2.20;;;;;;;24.92;46.00;98345.91;4995393;28;20685;-60
2021/08/20 00:38:56;;;;;;;2.80;2.60;;;;;;;24.84;45.82;98350.66;4995926;28;20681;-59
2021/08/20 00:41:22;;;;;;;2.47;2.27;;;;;;;24.84;45.78;98343.44;4995301;28;20208;-60
2021/08/20 00:43:49;;;;;;;2.30;2.20;;;;;;;24.82;46.11;98348.16;4995628;28;20195;-60
2021/08/20 00:46:16;;;;;;;2.60;2.40;;;;;;;24.78;46.00;98354.94;4995834;28;20610;-60
2021/08/20 00:48:43;;;;;;;2.20;2.10;;;;;;;24.77;46.31;98354.16;4995739;28;20610;-60
2021/08/20 00:51:27;;;;;;;2.23;2.13;;;;;;;24.80;46.12;98355.56;4995020;28;20261;-59
2021/08/20 00:53:55;;;;;;;2.57;2.37;;;;;;;24.77;46.05;98355.97;4995439;28;20260;-60
2021/08/20 00:56:24;;;;;;;2.60;2.40;;;;;;;24.81;45.95;98357.19;4995423;28;20563;-60
2021/08/20 00:58:51;;;;;;;2.37;2.27;;;;;;;24.82;46.07;98350.84;4995048;28;20191;-60
2021/08/20 01:01:18;;;;;;;2.30;2.20;;;;;;;24.87;45.64;98353.72;4993825;28;20219;-60
2021/08/20 01:03:45;;;;;;;2.70;2.50;;;;;;;24.85;45.90;98345.13;4994227;28;20196;-60
2021/08/20 01:06:13;;;;;;;2.40;2.30;;;;;;;24.89;45.77;98346.34;4993715;28;20286;-60
2021/08/20 01:08:39;;;;;;;2.53;2.33;;;;;;;24.92;45.60;98345.91;4995351;28;20198;-60
2021/08/20 01:11:10;;;;;;;2.57;2.40;;;;;;;24.90;45.61;98342.63;4993378;28;20313;-59
2021/08/20 01:13:39;;;;;;;2.47;2.27;;;;;;;24.86;45.67;98346.75;4993435;28;20199;-60
2021/08/20 01:16:06;;;;;;;2.47;2.27;;;;;;;24.87;45.58;98348.41;4993484;28;20183;-60
2021/08/20 01:18:37;;;;;;;2.40;2.30;;;;;;;24.85;45.94;98350.44;4993666;28;20278;-60
2021/08/20 01:21:11;;;;;;;1.97;1.87;;;;;;;24.85;45.72;98354.97;4993352;28;20207;-59
2021/08/20 01:23:38;;;;;;;2.23;2.13;;;;;;;24.83;45.66;98354.34;4993410;28;20187;-60
2021/08/20 01:26:07;;;;;;;2.70;2.50;;;;;;;24.79;45.91;98352.09;4993336;28;20250;-60
2021/08/20 01:28:34;;;;;;;2.30;2.20;;;;;;;24.79;45.91;98349.41;4993249;28;20776;-60
2021/08/20 01:31:04;;;;;;;2.40;2.20;;;;;;;24.80;45.93;98358.22;4993068;28;20648;-59
2021/08/20 01:33:32;;;;;;;2.30;2.20;;;;;;;24.80;45.80;98350.22;4993218;28;20218;-60
2021/08/20 01:35:59;;;;;;;2.70;2.50;;;;;;;24.80;46.00;98355.56;4994377;28;20195;-60
2021/08/20 01:38:27;;;;;;;2.20;2.10;;;;;;;24.75;46.12;98352.66;4993144;28;20192;-60
2021/08/20 01:40:55;;;;;;;2.37;2.27;;;;;;;24.74;46.09;98351.03;4993553;28;20210;-60
2021/08/20 01:43:22;;;;;;;2.50;2.30;;;;;;;24.76;46.14;98354.34;4992980;28;20195;-60
2021/08/20 01:45:50;;;;;;;2.40;2.20;;;;;;;24.74;46.09;98345.69;4993712;28;20192;-59
2021/08/20 01:48:17;;;;;;;2.10;2.00;;;;;;;24.80;45.78;98350.22;4992587;28;20206;-60
2021/08/20 01:50:44;;;;;;;2.33;2.23;;;;;;;24.79;46.00;98349.41;4992701;28;20227;-60
2021/08/20 01:53:14;;;;;;;2.20;2.07;;;;;;;24.76;45.71;98349.81;4992794;28;20200;-60
2021/08/20 01:55:44;;;;;;;2.13;2.03;;;;;;;24.76;46.02;98346.34;4993069;28;20725;-60
2021/08/20 01:58:12;;;;;;;2.30;2.20;;;;;;;24.76;45.79;98354.34;4992720;28;20196;-60
2021/08/20 02:00:40;;;;;;;2.00;1.90;;;;;;;24.76;45.96;98359.69;4992642;28;20310;-59
2021/08/20 02:03:08;;;;;;;2.40;2.30;;;;;;;24.72;46.08;98355.75;4992688;28;20659;-60
2021/08/20 02:05:35;;;;;;;2.03;1.93;;;;;;;24.71;45.95;98352.25;4993875;28;20200;-60
2021/08/20 02:08:03;;;;;;;2.10;2.00;;;;;;;24.70;45.96;98353.28;4992661;28;20206;-60
2021/08/20 02:10:31;;;;;;;2.17;2.07;;;;;;;24.73;45.98;98355.53;4992409;28;20215;-59
2021/08/20 02:12:58;;;;;;;1.83;1.73;;;;;;;24.75;46.04;98368.69;4992543;28;20201;-60
2021/08/20 02:15:28;;;;;;;2.20;2.10;;;;;;;24.72;45.82;98361.09;4992504;28;20201;-59
2021/08/20 02:17:54;;;;;;;1.93;1.83;;;;;;;24.71;45.90;98356.78;4992496;28;20221;-59
2021/08/20 02:20:24;;;;;;;2.00;1.90;;;;;;;24.69;46.14;98358.81;4992442;28;20183;-60
2021/08/20 02:22:51;;;;;;;2.20;2.10;;;;;;;24.69;46.01;98364.97;4992383;28;20680;-60
2021/08/20 02:25:20;;;;;;;2.27;2.17;;;;;;;24.71;45.87;98362.13;4992634;28;20223;-60
2021/08/20 02:27:48;;;;;;;2.30;2.20;;;;;;;24.69;46.03;98364.97;4992337;28;20694;-60
2021/08/20 02:30:15;;;;;;;2.10;2.00;;;;;;;24.67;46.37;98372.38;4992289;28;20558;-60
2021/08/20 02:32:47;;;;;;;2.23;2.10;;;;;;;24.69;46.17;98366.81;4992653;28;20222;-60
2021/08/20 02:35:22;;;;;;;2.23;2.13;;;;;;;24.69;45.89;98369.47;4992319;28;20187;-60
2021/08/20 02:37:51;;;;;;;2.00;1.90;;;;;;;24.69;45.84;98364.97;4992358;28;20203;-60
2021/08/20 02:40:17;;;;;;;2.47;2.27;;;;;;;24.69;45.79;98367.63;4992289;28;20187;-60
2021/08/20 02:42:49;;;;;;;2.17;2.07;;;;;;;24.69;45.89;98361.47;4992823;28;20559;-60
2021/08/20 02:45:16;;;;;;;2.27;2.17;;;;;;;24.68;46.06;98363.34;4993746;28;20557;-60
2021/08/20 02:47:43;;;;;;;2.13;2.03;;;;;;;24.69;45.98;98366.81;4992254;28;20215;-60
2021/08/20 02:50:10;;;;;;;2.10;2.00;;;;;;;24.71;46.09;98367.44;4992187;28;20286;-60
2021/08/20 02:52:37;;;;;;;1.97;1.87;;;;;;;24.74;45.92;98361.69;4992138;28;20776;-60
2021/08/20 02:55:04;;;;;;;2.27;2.17;;;;;;;24.74;45.89;98367.03;4976192;28;20221;-60
2021/08/20 02:57:37;;;;;;;2.17;2.07;;;;;;;24.76;45.81;98368.50;4993437;28;20559;-60
2021/08/20 03:00:05;;;;;;;2.10;2.00;;;;;;;24.73;46.05;98360.06;4996059;28;20245;-59
2021/08/20 03:02:33;;;;;;;2.10;2.00;;;;;;;24.72;45.87;98363.75;4995990;28;20631;-60
2021/08/20 03:05:03;;;;;;;2.40;2.30;;;;;;;24.74;45.89;98359.03;4995907;28;20210;-60
2021/08/20 03:07:30;;;;;;;2.33;2.23;;;;;;;24.76;45.70;98357.81;4996199;28;20575;-60
2021/08/20 03:09:57;;;;;;;2.20;2.10;;;;;;;24.70;45.84;98361.28;4995879;28;20199;-60
2021/08/20 03:12:25;;;;;;;1.90;1.80;;;;;;;24.70;45.89;98361.28;4995773;28;20282;-60
2021/08/20 03:14:55;;;;;;;2.20;2.10;;;;;;;24.73;45.75;98357.38;4995846;28;20204;-61
2021/08/20 03:17:27;;;;;;;2.20;2.10;;;;;;;24.73;45.59;98360.06;4996507;28;20195;-61
2021/08/20 03:19:54;;;;;;;1.93;1.83;;;;;;;24.75;45.74;98356.13;4995838;28;20196;-60
2021/08/20 03:22:20;;;;;;;2.20;2.10;;;;;;;24.82;45.59;98353.50;4995674;28;20224;-61
2021/08/20 03:24:47;;;;;;;2.00;1.90;;;;;;;24.80;45.66;98359.06;4995695;28;20195;-60
2021/08/20 03:27:13;;;;;;;2.00;1.90;;;;;;;24.77;45.52;98362.16;4995573;28;20661;-60
2021/08/20 03:29:52;;;;;;;2.10;2.00;;;;;;;24.77;45.76;98353.31;4995901;28;20201;-61
2021/08/20 03:32:21;;;;;;;2.20;2.10;;;;;;;24.76;45.68;98360.47;4995435;28;20234;-61
2021/08/20 03:34:54;;;;;;;2.37;2.17;;;;;;;24.74;45.71;98348.34;4995523;28;20188;-59
2021/08/20 03:37:21;;;;;;;2.20;2.10;;;;;;;24.78;45.48;98354.94;4995451;28;20203;-60
2021/08/20 03:39:47;;;;;;;1.93;1.83;;;;;;;24.71;45.78;98346.91;4995504;28;20191;-59
2021/08/20 03:42:18;;;;;;;2.30;2.20;;;;;;;24.71;45.67;98354.09;4995386;28;20215;-59
2021/08/20 03:45:06;;;;;;;2.00;1.90;;;;;;;24.71;45.61;98351.44;4996451;28;20253;-60
2021/08/20 03:47:35;;;;;;;2.10;2.00;;;;;;;24.72;45.67;98353.09;4995530;28;20688;-60
2021/08/20 03:50:03;;;;;;;2.00;1.90;;;;;;;24.75;45.57;98352.66;4995233;28;20202;-59
2021/08/20 03:52:34;;;;;;;2.13;2.03;;;;;;;24.73;45.79;98360.06;4995179;28;20608;-61
2021/08/20 03:55:00;;;;;;;1.90;1.80;;;;;;;24.70;45.54;98358.59;4996582;28;20744;-61
2021/08/20 03:57:27;;;;;;;2.13;2.03;;;;;;;24.72;45.66;98361.88;4995426;28;20202;-60
2021/08/20 03:59:54;;;;;;;2.00;1.90;;;;;;;24.72;45.67;98359.22;4994973;28;20693;-60
2021/08/20 04:02:20;;;;;;;2.00;1.90;;;;;;;24.75;45.48;98358.00;4978717;28;20219;-60
2021/08/20 04:04:47;;;;;;;2.03;1.93;;;;;;;24.75;45.52;98355.34;4994857;28;20191;-60
2021/08/20 04:07:46;;;;;;;1.93;1.83;;;;;;;24.75;45.43;98366.00;4992051;28;20569;-59
2021/08/20 04:10:33;;;;;;;2.10;2.00;;;;;;;24.76;45.60;98365.00;4993799;28;20210;-60
2021/08/20 04:13:17;;;;;;;2.10;2.00;;;;;;;24.78;45.63;98370.97;4996004;28;20191;-60
2021/08/20 04:15:46;;;;;;;2.00;1.90;;;;;;;24.71;45.48;98367.44;4994589;28;20203;-60
2021/08/20 04:18:15;;;;;;;1.90;1.80;;;;;;;24.71;45.53;98370.91;4994645;28;20310;-60
2021/08/20 04:20:42;;;;;;;2.40;2.30;;;;;;;24.73;45.75;98370.72;4994464;28;20215;-60
2021/08/20 04:23:09;;;;;;;2.10;2.00;;;;;;;24.74;45.49;98372.38;4994563;28;20200;-60
2021/08/20 04:25:38;;;;;;;1.97;1.87;;;;;;;24.73;45.75;98376.06;4995034;28;20196;-60
2021/08/20 04:28:40;;;;;;;2.20;2.10;;;;;;;24.70;45.71;98381.81;4974176;28;20725;-60
2021/08/20 04:31:38;;;;;;;2.13;2.03;;;;;;;24.73;45.59;98384.06;4994241;28;20234;-60
2021/08/20 04:34:19;;;;;;;2.10;2.00;;;;;;;24.72;45.54;98385.09;4994367;28;20214;-60
2021/08/20 04:36:56;;;;;;;2.10;2.00;;;;;;;24.72;45.64;98387.78;4994332;28;20191;-60
2021/08/20 04:39:42;;;;;;;1.90;1.80;;;;;;;24.72;45.64;98396.59;4994198;28;20187;-60
2021/08/20 04:42:20;;;;;;;2.27;2.17;;;;;;;24.75;45.38;98393.50;4994788;28;20299;-60
2021/08/20 04:45:10;;;;;;;2.20;2.10;;;;;;;24.76;45.65;98391.69;4995574;28;20230;-60
2021/08/20 04:47:46;;;;;;;2.17;2.07;;;;;;;24.75;45.58;98395.38;4994106;28;20317;-60
2021/08/20 04:50:31;;;;;;;2.17;2.07;;;;;;;24.76;45.29;98399.69;4995421;28;20183;-60
2021/08/20 04:53:22;;;;;;;2.10;2.00;;;;;;;24.74;45.37;98394.53;4992127;28;20214;-60
2021/08/20 04:56:07;;;;;;;2.67;2.47;;;;;;;24.71;45.61;98399.47;4995755;28;20641;-61
2021/08/20 04:58:35;;;;;;;2.00;1.90;;;;;;;24.70;45.68;98397.81;4993909;28;20199;-60
2021/08/20 05:01:02;;;;;;;2.10;2.00;;;;;;;24.69;45.83;98409.50;4995024;28;20583;-60
2021/08/20 05:03:31;;;;;;;1.90;1.80;;;;;;;24.64;45.45;98410.13;4993761;28;20596;-61
2021/08/20 05:05:58;;;;;;;2.30;2.20;;;;;;;24.61;45.67;98406.00;4995039;28;20219;-60
2021/08/20 05:08:25;;;;;;;2.47;2.27;;;;;;;24.60;45.79;98408.88;4994947;28;20229;-60
2021/08/20 05:10:52;;;;;;;2.17;2.03;;;;;;;24.62;45.55;98410.31;4994773;28;20689;-60
2021/08/20 05:13:18;;;;;;;2.13;1.87;;;;;;;24.59;45.97;98416.06;4994877;28;20206;-60
2021/08/20 05:15:45;;;;;;;2.13;2.00;;;;;;;24.59;45.78;98416.06;4994734;28;20187;-60
2021/08/20 05:18:12;;;;;;;1.90;1.80;;;;;;;24.59;45.62;98418.72;4994741;28;20249;-60
2021/08/20 05:20:38;;;;;;;2.10;2.00;;;;;;;24.61;45.77;98429.22;4994455;28;20239;-60
2021/08/20 05:23:05;;;;;;;2.00;1.90;;;;;;;24.60;45.95;98424.88;4993527;28;20682;-58
2021/08/20 05:25:34;;;;;;;2.27;2.17;;;;;;;24.59;45.70;98424.06;4994490;28;20191;-60
2021/08/20 05:28:03;;;;;;;2.17;2.07;;;;;;;24.59;45.80;98434.75;4994520;28;20733;-60
2021/08/20 05:30:30;;;;;;;1.93;1.83;;;;;;;24.60;45.67;98430.22;4993607;28;20274;-59
2021/08/20 05:32:57;;;;;;;1.87;1.77;;;;;;;24.62;45.57;98426.31;4994903;28;20214;-60
2021/08/20 05:35:23;;;;;;;2.00;1.90;;;;;;;24.62;45.86;98434.34;4994624;28;20539;-60
2021/08/20 05:37:53;;;;;;;1.83;1.73;;;;;;;24.61;45.58;98435.34;4994481;28;20189;-60
2021/08/20 05:40:20;;;;;;;1.80;1.70;;;;;;;24.62;45.70;98434.34;4994277;28;20560;-59
2021/08/20 05:42:46;;;;;;;2.30;2.20;;;;;;;24.62;45.81;98439.66;4994329;28;20206;-59
2021/08/20 05:45:13;;;;;;;2.10;2.00;;;;;;;24.62;45.77;98433.53;4994311;28;20294;-59
2021/08/20 05:47:40;;;;;;;1.90;1.80;;;;;;;24.63;45.76;98440.50;4994221;28;20191;-59
2021/08/20 05:50:08;;;;;;;1.97;1.87;;;;;;;24.63;45.75;98443.16;4993009;28;20187;-59
2021/08/20 05:52:37;;;;;;;2.03;1.93;;;;;;;24.62;45.89;98434.34;4994001;28;20254;-59
2021/08/20 05:55:06;;;;;;;2.10;1.90;;;;;;;24.61;45.87;98437.22;4994107;28;20191;-59
2021/08/20 05:57:32;;;;;;;2.00;1.90;;;;;;;24.62;45.63;98434.34;4992738;28;20341;-60
2021/08/20 05:59:59;;;;;;;2.10;2.00;;;;;;;24.65;45.64;98449.13;4994028;28;20600;-59
2021/08/20 06:02:26;;;;;;;2.07;1.97;;;;;;;24.65;45.48;98449.13;4993877;28;20690;-60
2021/08/20 06:04:53;;;;;;;2.10;2.00;;;;;;;24.65;45.68;98444.59;4992781;28;20619;-59
2021/08/20 06:07:20;;;;;;;1.80;1.70;;;;;;;24.69;45.38;98449.53;4992748;28;20195;-61
2021/08/20 06:09:46;;;;;;;2.20;2.10;;;;;;;24.72;45.44;98446.47;4993922;28;20278;-60
2021/08/20 06:12:14;;;;;;;2.07;1.97;;;;;;;24.70;45.61;98452.00;4993845;28;20221;-60
2021/08/20 06:14:40;;;;;;;2.10;2.00;;;;;;;24.71;45.62;98450.97;4993714;28;20241;-60
2021/08/20 06:17:07;;;;;;;2.20;2.10;;;;;;;24.69;45.40;98454.84;4993734;28;20191;-60
2021/08/20 06:19:33;;;;;;;2.23;2.13;;;;;;;24.69;45.71;98454.84;4993744;28;20188;-60
2021/08/20 06:22:00;;;;;;;2.03;1.93;;;;;;;24.72;45.52;98460.63;4993642;28;20238;-61
2021/08/20 06:24:26;;;;;;;2.07;1.97;;;;;;;24.72;45.32;98465.16;4993965;28;20184;-60
2021/08/20 06:26:53;;;;;;;2.00;1.90;;;;;;;24.71;45.50;98466.19;4993824;28;20199;-60
2021/08/20 06:29:20;;;;;;;2.20;2.10;;;;;;;24.67;45.57;98458.56;4993653;28;20202;-60
2021/08/20 06:31:49;;;;;;;2.23;2.13;;;;;;;24.67;45.61;98463.09;4975415;28;20223;-60
2021/08/20 06:34:16;;;;;;;2.20;2.10;;;;;;;24.66;45.50;98467.59;4993315;28;20226;-60
2021/08/20 06:36:44;;;;;;;2.00;1.90;;;;;;;24.65;45.68;98459.78;4993504;28;20608;-61
2021/08/20 06:39:11;;;;;;;2.03;1.93;;;;;;;24.70;45.56;98461.88;4993579;28;20226;-60
2021/08/20 06:41:38;;;;;;;2.20;2.10;;;;;;;24.70;45.62;98457.34;4993376;28;20261;-60
2021/08/20 06:44:05;;;;;;;1.97;1.87;;;;;;;24.69;45.51;98457.53;4992204;28;20202;-60
2021/08/20 06:46:32;;;;;;;2.03;1.93;;;;;;;24.64;45.70;98458.97;4993572;28;20570;-60
2021/08/20 06:48:58;;;;;;;1.90;1.80;;;;;;;24.63;45.57;98468.00;4993663;28;20242;-60
2021/08/20 06:51:25;;;;;;;2.30;2.10;;;;;;;24.64;45.85;98466.97;4991661;28;20570;-60
2021/08/20 06:53:51;;;;;;;2.33;2.17;;;;;;;24.63;45.83;98462.66;4993042;28;20195;-59
2021/08/20 06:56:18;;;;;;;2.43;2.23;;;;;;;24.64;45.80;98463.50;4993090;28;20267;-60
2021/08/20 06:58:45;;;;;;;2.97;2.77;;;;;;;24.62;46.03;98463.69;4993520;28;20192;-60
2021/08/20 07:01:12;;;;;;;3.47;3.17;;;;;;;24.64;45.96;98461.63;4993344;28;20213;-60
2021/08/20 07:03:39;;;;;;;4.50;4.10;;;;;;;24.63;45.92;98462.66;4993207;28;20192;-60
2021/08/20 07:06:06;;;;;;;4.73;3.90;;;;;;;24.49;46.08;98466.31;4993241;28;20210;-60
2021/08/20 07:08:32;;;;;;;4.57;4.17;;;;;;;24.48;46.05;98464.66;4993281;28;20570;-60
2021/08/20 07:10:59;;;;;;;4.27;3.87;;;;;;;24.46;45.98;98469.38;4993167;28;20693;-60
2021/08/20 07:13:26;;;;;;;3.97;3.60;;;;;;;24.43;45.98;98467.13;4993091;28;20216;-60
2021/08/20 07:15:52;;;;;;;5.17;4.17;;;;;;;24.41;46.06;98458.50;4993512;28;20606;-60
2021/08/20 07:18:19;;;;;;;4.77;3.57;;;;;;;24.40;45.99;98464.84;4993097;28;20192;-60
2021/08/20 07:20:45;;;;;;;4.03;3.63;;;;;;;24.41;46.00;98463.81;4992957;28;20720;-60
2021/08/20 07:23:12;;;;;;;4.33;3.93;;;;;;;24.44;45.81;98463.41;4993008;28;20540;-60
2021/08/20 07:25:38;;;;;;;4.40;3.83;;;;;;;24.48;45.76;98464.66;4991822;28;20568;-60
2021/08/20 07:28:05;;;;;;;4.00;3.70;;;;;;;24.46;45.75;98467.53;4992975;28;20191;-60
2021/08/20 07:30:31;;;;;;;4.20;3.80;;;;;;;24.46;45.57;98462.22;4993381;28;20195;-60
2021/08/20 07:32:57;;;;;;;3.67;3.33;;;;;;;24.46;45.56;98467.53;4993097;28;20547;-60
2021/08/20 07:35:24;;;;;;;3.33;3.07;;;;;;;24.48;45.55;98464.66;4993068;28;20195;-60
2021/08/20 07:37:50;;;;;;;3.63;3.33;;;;;;;24.49;45.59;98471.63;4993178;28;20196;-60
2021/08/20 07:40:17;;;;;;;3.87;3.47;;;;;;;24.49;45.58;98466.31;4993229;28;20600;-60
2021/08/20 07:42:43;;;;;;;4.03;3.70;;;;;;;24.53;45.53;98467.56;4991581;28;20211;-61
2021/08/20 07:45:10;;;;;;;4.13;3.43;;;;;;;24.53;45.57;98464.91;4994357;28;20195;-60
2021/08/20 07:47:49;;;;;;;3.60;3.30;;;;;;;24.58;45.42;98470.44;4995629;28;20653;-60
2021/08/20 07:50:17;;;;;;;3.37;2.77;;;;;;;24.57;45.17;98463.47;4996339;28;20183;-60
2021/08/20 07:52:44;;;;;;;4.00;3.60;;;;;;;24.55;45.35;98462.84;4996546;28;20219;-60
2021/08/20 07:55:12;;;;;;;4.97;3.50;;;;;;;24.59;45.59;98465.91;4995005;28;20500;-61
2021/08/20 07:57:52;;;;;;;4.40;2.80;;;;;;;24.59;45.32;98469.41;4996195;28;20223;-60
2021/08/20 08:00:22;;;;;;;4.20;3.07;;;;;;;24.62;45.35;98461.00;4996526;28;20184;-60
2021/08/20 08:02:49;;;;;;;3.37;3.07;;;;;;;24.63;45.25;98468.00;4996097;28;20218;-60
2021/08/20 08:05:16;;;;;;;3.50;2.90;;;;;;;24.63;45.19;98465.31;4994863;28;20184;-60
2021/08/20 08:07:43;;;;;;;2.93;2.73;;;;;;;24.65;45.41;98471.28;4996273;28;20720;-61
2021/08/20 08:10:10;;;;;;;3.90;3.30;;;;;;;24.63;45.34;98468.00;4994564;28;20209;-62
2021/08/20 08:12:37;;;;;;;3.33;3.00;;;;;;;24.66;45.23;98474.78;4995758;28;20246;-61
2021/08/20 08:15:08;;;;;;;3.20;2.90;;;;;;;24.70;45.10;98477.88;4995663;28;20195;-65
2021/08/20 08:17:35;;;;;;;3.80;2.80;;;;;;;24.70;45.16;98483.22;4995225;28;20290;-61
2021/08/20 08:20:08;;;;;;;3.07;2.87;;;;;;;24.71;45.14;98476.84;4996108;28;20250;-60
2021/08/20 08:22:35;;;;;;;2.73;2.53;;;;;;;24.73;45.17;98475.59;4995643;28;20302;-60
2021/08/20 08:25:03;;;;;;;3.63;2.73;;;;;;;24.77;45.39;98476.06;4995568;28;20246;-61
2021/08/20 08:27:29;;;;;;;3.10;2.80;;;;;;;24.80;45.12;98481.00;4995545;28;20199;-61
2021/08/20 08:29:56;;;;;;;3.50;2.90;;;;;;;24.83;44.97;98482.44;4995755;28;20191;-60
2021/08/20 08:32:22;;;;;;;2.90;2.70;;;;;;;24.86;45.14;98485.53;4995342;28;20219;-61
2021/08/20 08:34:49;;;;;;;3.17;2.87;;;;;;;24.88;45.07;98496.00;4995684;28;20195;-61
2021/08/20 08:37:20;;;;;;;3.00;2.73;;;;;;;24.87;44.94;98497.88;4995328;28;20246;-61
2021/08/20 08:39:47;;;;;;;2.80;2.60;;;;;;;24.89;44.99;98503.81;4995675;28;20626;-61
2021/08/20 08:42:13;;;;;;;2.97;2.77;;;;;;;24.92;45.01;98502.56;4995516;28;20618;-60
2021/08/20 08:44:40;;;;;;;3.43;2.43;;;;;;;24.98;44.74;98500.94;4995355;28;20191;-60
2021/08/20 08:47:07;;;;;;;3.10;2.90;;;;;;;25.01;44.76;98497.88;4995871;28;20195;-60
2021/08/20 08:49:34;;;;;;;2.80;2.60;;;;;;;25.01;44.70;98500.53;4995387;28;20195;-60
2021/08/20 08:52:00;;;;;;;2.70;2.50;;;;;;;25.04;44.87;98502.81;4995323;28;20214;-61
2021/08/20 08:54:27;;;;;;;3.93;2.50;;;;;;;25.04;44.80;98500.16;4995234;28;20187;-61
2021/08/20 08:56:53;;;;;;;3.00;2.80;;;;;;;25.05;44.77;98504.47;4994710;28;20589;-60
2021/08/20 08:59:20;;;;;;;2.70;2.50;;;;;;;25.09;44.68;98505.69;4995040;28;20198;-61
2021/08/20 09:01:46;;;;;;;2.60;2.40;;;;;;;25.08;44.67;98498.72;4995266;28;20211;-61
2021/08/20 09:04:15;;;;;;;2.93;2.23;;;;;;;25.09;44.80;98497.69;4995082;28;20283;-61
2021/08/20 09:06:44;;;;;;;2.57;2.37;;;;;;;25.11;44.66;98490.28;4993749;28;20654;-60
2021/08/20 09:09:12;;;;;;;2.83;2.60;;;;;;;25.14;44.54;98495.22;4994978;28;20242;-60
2021/08/20 09:11:40;;;;;;;3.63;2.33;;;;;;;25.04;44.66;98494.81;4995101;28;20222;-60
2021/08/20 09:14:08;;;;;;;2.97;2.50;;;;;;;25.03;44.63;98495.84;4994912;28;20226;-61
2021/08/20 09:16:43;;;;;;;2.73;2.53;;;;;;;25.03;44.48;98496.66;4995339;28;20195;-61
2021/08/20 09:19:21;;;;;;;2.57;2.17;;;;;;;25.07;44.76;98499.75;4994795;28;20179;-61
2021/08/20 09:21:53;;;;;;;2.40;2.20;;;;;;;25.09;44.87;98492.34;4993675;28;20258;-61
2021/08/20 09:24:35;;;;;;;2.37;2.17;;;;;;;25.13;44.81;98493.56;4995065;28;20623;-61
2021/08/20 09:27:29;;;;;;;2.80;2.60;;;;;;;25.12;44.87;98497.28;4995087;28;20180;-61
2021/08/20 09:30:08;;;;;;;2.30;2.20;;;;;;;25.15;44.61;98499.53;4992564;28;20211;-61
2021/08/20 09:32:41;;;;;;;2.60;2.43;;;;;;;25.13;44.71;98492.78;4994496;28;20678;-61
2021/08/20 09:35:08;;;;;;;2.33;2.13;;;;;;;25.15;44.80;98502.19;4995073;28;20176;-61
2021/08/20 09:37:36;;;;;;;2.57;2.40;;;;;;;25.18;44.42;98503.66;4994422;28;20191;-60
2021/08/20 09:40:10;;;;;;;2.67;2.47;;;;;;;25.18;44.64;98506.31;4993132;28;20218;-60
2021/08/20 09:42:37;;;;;;;2.23;2.10;;;;;;;25.18;44.53;98499.16;4994320;28;20203;-61
2021/08/20 09:45:20;;;;;;;2.20;2.10;;;;;;;25.21;44.72;98501.41;4994346;28;20249;-61
2021/08/20 09:47:52;;;;;;;2.63;2.13;;;;;;;25.22;44.39;98502.22;4994825;28;20199;-61
2021/08/20 09:50:21;;;;;;;2.43;2.23;;;;;;;25.21;44.50;98496.06;4994244;28;20230;-61
2021/08/20 09:52:48;;;;;;;2.13;2.00;;;;;;;25.29;44.12;98499.53;4994105;28;20211;-61
2021/08/20 09:55:37;;;;;;;2.47;2.27;;;;;;;25.26;44.24;98499.97;4994205;28;20187;-61
2021/08/20 09:58:08;;;;;;;2.27;2.17;;;;;;;25.26;44.36;98497.28;4993014;28;20179;-61
2021/08/20 10:00:34;;;;;;;2.57;2.37;;;;;;;25.29;44.14;98497.72;4994305;28;20179;-61
2021/08/20 10:03:04;;;;;;;3.30;2.33;;;;;;;25.31;44.42;98495.66;4994329;28;20718;-61
2021/08/20 10:05:33;;;;;;;2.50;2.30;;;;;;;25.38;43.96;98495.66;4994287;28;20186;-62
2021/08/20 10:08:00;;;;;;;2.70;2.40;;;;;;;25.40;44.09;98495.44;4993203;28;20206;-61
2021/08/20 10:10:30;;;;;;;2.40;2.20;;;;;;;25.44;44.11;98499.38;4994271;28;20199;-60
2021/08/20 10:12:57;;;;;;;2.17;2.07;;;;;;;25.45;44.15;98484.97;4993779;28;20689;-61
2021/08/20 10:15:24;;;;;;;3.00;2.30;;;;;;;25.48;43.88;98489.94;4992746;28;20203;-61
2021/08/20 10:17:52;;;;;;;2.63;2.17;;;;;;;25.49;43.98;98497.75;4994231;28;20242;-61
2021/08/20 10:20:20;;;;;;;2.40;2.20;;;;;;;25.47;44.14;98494.41;4992583;28;20560;-61
2021/08/20 10:22:48;;;;;;;2.47;2.27;;;;;;;25.46;44.11;98492.78;4993852;28;20254;-60
2021/08/20 10:25:15;;;;;;;2.00;1.90;;;;;;;25.51;43.58;98494.84;4993795;28;20246;-62
2021/08/20 10:27:42;;;;;;;2.33;2.17;;;;;;;25.53;43.58;98487.47;4992512;28;20199;-61
2021/08/20 10:30:10;;;;;;;1.93;1.83;;;;;;;25.58;43.36;98489.50;4993758;28;20195;-61
2021/08/20 10:32:36;;;;;;;2.87;2.10;;;;;;;25.62;43.40;98480.06;4993548;28;20215;-61
2021/08/20 10:35:03;;;;;;;2.13;1.77;;;;;;;25.59;43.20;98483.16;4993652;28;20206;-61
2021/08/20 10:37:31;;;;;;;2.20;2.00;;;;;;;25.60;43.30;98476.75;4993698;28;20194;-61
2021/08/20 10:40:21;;;;;;;2.20;2.00;;;;;;;25.64;43.42;98480.66;4993694;28;20187;-61
2021/08/20 10:42:49;;;;;;;2.10;2.00;;;;;;;25.67;43.62;98488.28;4992605;28;20234;-61
2021/08/20 10:45:16;;;;;;;2.27;2.07;;;;;;;25.70;43.31;98481.69;4993593;28;20249;-61
2021/08/20 10:47:45;;;;;;;2.03;1.93;;;;;;;25.68;43.32;98476.56;4994132;28;20558;-61
2021/08/20 10:50:14;;;;;;;1.97;1.87;;;;;;;25.67;43.44;98482.94;4992716;28;20195;-61
2021/08/20 10:52:53;;;;;;;2.17;1.90;;;;;;;25.65;43.32;98475.13;4993485;28;20226;-61
2021/08/20 10:55:26;;;;;;;2.07;1.97;;;;;;;25.61;43.02;98478.41;4993585;28;20175;-61
2021/08/20 10:58:01;;;;;;;1.90;1.80;;;;;;;25.58;43.24;98478.81;4993521;28;20188;-61
2021/08/20 11:00:30;;;;;;;2.13;1.93;;;;;;;25.58;43.25;98481.50;4993442;28;20274;-61
2021/08/20 11:03:03;;;;;;;1.80;1.70;;;;;;;25.58;43.48;98489.50;4993511;28;20183;-61
2021/08/20 11:05:49;;;;;;;1.90;1.80;;;;;;;25.57;43.49;98477.19;4992367;28;20542;-61
2021/08/20 11:08:27;;;;;;;1.97;1.70;;;;;;;25.61;43.30;98479.25;4993690;28;20182;-61
2021/08/20 11:10:56;;;;;;;1.93;1.83;;;;;;;25.69;43.15;98485.38;4993279;28;20247;-61
2021/08/20 11:13:23;;;;;;;2.17;2.00;;;;;;;25.74;43.16;98475.72;4993218;28;20211;-62
2021/08/20 11:15:53;;;;;;;1.93;1.83;;;;;;;25.77;43.09;98477.16;4993212;28;20203;-61
2021/08/20 11:18:46;;;;;;;2.17;1.97;;;;;;;25.71;42.97;98478.81;4993468;28;20184;-59
2021/08/20 11:21:45;;;;;;;1.73;1.63;;;;;;;25.70;42.66;98477.19;4996767;28;20223;-58
2021/08/20 11:24:18;;;;;;;2.00;1.90;;;;;;;25.64;42.67;98478.81;4985783;28;20532;-59
2021/08/20 11:26:44;;;;;;;1.73;1.63;;;;;;;25.69;42.90;98482.72;4997057;28;20191;-59
2021/08/20 11:29:13;;;;;;;2.50;1.90;;;;;;;25.71;42.87;98477.97;4997025;28;20223;-59
2021/08/20 11:31:40;;;;;;;1.90;1.80;;;;;;;25.77;43.00;98483.31;4980465;28;20219;-60
2021/08/20 11:34:07;;;;;;;2.00;1.90;;;;;;;25.79;42.70;98475.91;4989210;28;20689;-60
2021/08/20 11:36:34;;;;;;;1.80;1.70;;;;;;;25.88;42.59;98479.19;4987504;28;20672;-59
2021/08/20 11:39:02;;;;;;;2.10;1.90;;;;;;;25.91;42.64;98477.94;4982225;28;20623;-61
2021/08/20 11:41:37;;;;;;;1.77;1.67;;;;;;;25.96;42.59;98474.66;4987444;28;20713;-60
2021/08/20 11:44:06;;;;;;;2.17;2.03;;;;;;;26.00;42.55;98481.22;4975737;28;20191;-59
2021/08/20 11:46:37;;;;;;;2.00;1.80;;;;;;;26.04;42.50;98469.91;4977014;28;20259;-59